Time;durP1;ratioP1;P1;durP2;ratioP2;P2;SDS_P1;SDS_P2;PMS_P1;PMS_P2;Temp;Humidity;BMP_temperature;BMP_pressure;BME280_temperature;BME280_humidity;BME280_pressure;Samples;Min_cycle;Max_cycle;Signal;HPM_P1;HPM_P2
2021/05/04 00:02:01;;;;;;;3.55;2.63;;;10.30;55.70;;;;;;5020727;28;20034;-63
2021/05/04 00:04:27;;;;;;;3.13;2.40;;;10.30;55.80;;;;;;5019870;28;20531;-63
2021/05/04 00:06:53;;;;;;;3.08;2.50;;;10.30;55.90;;;;;;5018323;28;20405;-64
2021/05/04 00:09:19;;;;;;;2.70;2.50;;;10.30;55.90;;;;;;5015136;28;20079;-63
2021/05/04 00:11:44;;;;;;;3.50;2.65;;;10.20;55.80;;;;;;5019515;28;20026;-63
2021/05/04 00:14:10;;;;;;;3.10;2.47;;;10.10;55.80;;;;;;5015343;28;20056;-63
2021/05/04 00:16:36;;;;;;;4.07;2.72;;;10.10;56.30;;;;;;5015976;28;20026;-63
2021/05/04 00:19:02;;;;;;;3.13;2.58;;;10.00;55.80;;;;;;5022341;28;20032;-63
2021/05/04 00:21:27;;;;;;;4.00;2.45;;;9.90;56.10;;;;;;5016823;28;20168;-63
2021/05/04 00:23:53;;;;;;;2.65;2.45;;;9.90;56.10;;;;;;5020188;28;20079;-63
2021/05/04 00:26:19;;;;;;;3.28;2.40;;;9.80;55.90;;;;;;5014429;28;20099;-63
2021/05/04 00:28:45;;;;;;;2.58;2.17;;;9.70;56.00;;;;;;5024317;28;20034;-63
2021/05/04 00:31:10;;;;;;;3.95;2.40;;;9.70;56.20;;;;;;5020173;28;20076;-63
2021/05/04 00:33:36;;;;;;;3.55;2.70;;;9.70;56.30;;;;;;5015153;28;20037;-63
2021/05/04 00:36:02;;;;;;;2.70;2.50;;;9.60;56.30;;;;;;5015123;28;20092;-63
2021/05/04 00:38:27;;;;;;;3.05;2.63;;;9.60;56.40;;;;;;5016826;28;20545;-63
2021/05/04 00:40:53;;;;;;;3.03;2.70;;;9.60;56.60;;;;;;5016077;28;20750;-63
2021/05/04 00:43:28;;;;;;;2.40;2.20;;;9.60;56.50;;;;;;5015033;28;20029;-63
2021/05/04 00:45:54;;;;;;;2.63;2.42;;;9.60;56.60;;;;;;5014329;28;20037;-63
2021/05/04 00:48:20;;;;;;;3.60;2.22;;;9.60;56.60;;;;;;5014768;28;20389;-63
2021/05/04 00:50:46;;;;;;;2.60;2.40;;;9.60;56.60;;;;;;5015125;28;20041;-63
2021/05/04 00:53:13;;;;;;;2.90;2.55;;;9.60;56.70;;;;;;5014160;28;20054;-63
2021/05/04 00:55:40;;;;;;;2.30;2.10;;;9.60;56.80;;;;;;5014421;28;20113;-63
2021/05/04 00:58:07;;;;;;;3.33;2.50;;;9.60;56.90;;;;;;5019537;28;20045;-63
2021/05/04 01:00:33;;;;;;;2.78;2.40;;;9.60;56.80;;;;;;5015987;28;20509;-63
2021/05/04 01:02:59;;;;;;;2.83;2.30;;;9.60;57.50;;;;;;5023267;28;20034;-63
2021/05/04 01:05:25;;;;;;;2.47;2.28;;;9.50;56.90;;;;;;5014472;28;20117;-63
2021/05/04 01:07:51;;;;;;;3.35;2.70;;;9.50;56.90;;;;;;5014666;28;20106;-63
2021/05/04 01:10:17;;;;;;;2.50;2.30;;;9.50;57.20;;;;;;5003032;28;20026;-63
2021/05/04 01:12:42;;;;;;;5.05;2.78;;;9.40;57.10;;;;;;5014847;28;20358;-63
2021/05/04 01:15:08;;;;;;;3.75;2.88;;;9.40;57.30;;;;;;5016044;28;20136;-64
2021/05/04 01:17:35;;;;;;;2.60;2.40;;;9.40;57.20;;;;;;5015294;28;20026;-63
2021/05/04 01:20:01;;;;;;;3.80;3.00;;;9.40;57.30;;;;;;5015369;28;20026;-64
2021/05/04 01:22:26;;;;;;;3.17;2.88;;;9.50;57.30;;;;;;5016727;28;20124;-63
2021/05/04 01:24:52;;;;;;;3.03;2.72;;;9.50;57.40;;;;;;5015280;28;20026;-63
2021/05/04 01:27:18;;;;;;;5.60;2.72;;;9.50;57.50;;;;;;5017893;28;20022;-63
2021/05/04 01:29:43;;;;;;;2.67;2.47;;;9.50;57.40;;;;;;5015125;28;20034;-63
2021/05/04 01:32:10;;;;;;;2.78;2.42;;;9.50;57.10;;;;;;5014321;28;20034;-63
2021/05/04 01:34:37;;;;;;;3.38;2.80;;;9.50;57.20;;;;;;5014605;28;20037;-63
2021/05/04 01:37:03;;;;;;;3.42;2.70;;;9.60;57.30;;;;;;5014145;28;20037;-63
2021/05/04 01:39:42;;;;;;;3.50;2.80;;;9.60;57.40;;;;;;5013643;28;20086;-63
2021/05/04 01:42:09;;;;;;;2.90;2.60;;;9.70;57.40;;;;;;5013222;28;20116;-63
2021/05/04 01:44:35;;;;;;;4.43;2.90;;;9.70;57.40;;;;;;5013942;28;20033;-63
2021/05/04 01:47:01;;;;;;;3.58;2.65;;;9.70;57.40;;;;;;5014444;28;20076;-63
2021/05/04 01:49:26;;;;;;;3.65;2.88;;;9.70;57.40;;;;;;5014552;28;20068;-63
2021/05/04 01:51:55;;;;;;;3.08;2.78;;;9.70;57.30;;;;;;5013623;28;20033;-63
2021/05/04 01:54:22;;;;;;;3.35;2.85;;;9.80;57.30;;;;;;5016312;28;20036;-63
2021/05/04 01:56:49;;;;;;;2.53;2.33;;;9.70;57.20;;;;;;5013304;28;20072;-63
2021/05/04 01:59:14;;;;;;;3.05;2.83;;;9.80;57.20;;;;;;5021184;28;20021;-63
2021/05/04 02:01:40;;;;;;;3.13;2.75;;;9.80;57.30;;;;;;5016530;28;20048;-63
2021/05/04 02:04:06;;;;;;;3.45;2.80;;;9.80;57.30;;;;;;5015167;28;20021;-63
2021/05/04 02:06:32;;;;;;;3.25;2.72;;;9.80;57.20;;;;;;5014096;28;20475;-63
2021/05/04 02:08:57;;;;;;;4.05;2.90;;;9.80;57.10;;;;;;5014155;28;20608;-63
2021/05/04 02:11:23;;;;;;;2.75;2.55;;;9.80;57.30;;;;;;5013305;28;20025;-63
2021/05/04 02:13:48;;;;;;;3.08;2.75;;;9.80;57.30;;;;;;5018528;28;20021;-63
2021/05/04 02:16:14;;;;;;;3.20;2.90;;;9.90;57.40;;;;;;5013342;28;20034;-63
2021/05/04 02:18:40;;;;;;;2.75;2.53;;;9.90;57.30;;;;;;5019253;28;20363;-63
2021/05/04 02:21:05;;;;;;;3.80;2.88;;;9.90;57.30;;;;;;5018983;28;20030;-63
2021/05/04 02:23:31;;;;;;;3.45;2.88;;;9.90;57.30;;;;;;5019395;28;20108;-63
2021/05/04 02:25:58;;;;;;;7.53;5.25;;;9.80;57.40;;;;;;5014356;28;20022;-63
2021/05/04 02:28:24;;;;;;;4.85;4.35;;;9.80;57.50;;;;;;5016322;28;20057;-63
2021/05/04 02:30:50;;;;;;;3.50;3.20;;;9.70;57.60;;;;;;5013896;28;20030;-63
2021/05/04 02:33:15;;;;;;;3.83;3.20;;;9.70;57.70;;;;;;5016667;28;20083;-63
2021/05/04 02:35:41;;;;;;;4.30;3.28;;;9.70;57.80;;;;;;5021256;28;20104;-63
2021/05/04 02:38:06;;;;;;;4.20;2.95;;;9.60;57.80;;;;;;5016738;28;20087;-63
2021/05/04 02:40:32;;;;;;;3.70;2.83;;;9.50;58.10;;;;;;5020416;28;20105;-63
2021/05/04 02:42:58;;;;;;;3.17;2.70;;;9.50;58.20;;;;;;5025361;28;20030;-63
2021/05/04 02:45:23;;;;;;;3.08;2.67;;;9.50;58.10;;;;;;5018623;28;20060;-63
2021/05/04 02:47:49;;;;;;;3.90;3.30;;;9.40;58.20;;;;;;5024999;28;20021;-63
2021/05/04 02:50:15;;;;;;;3.25;2.85;;;9.40;58.50;;;;;;5020116;28;20080;-63
2021/05/04 02:52:41;;;;;;;5.57;3.00;;;9.40;58.60;;;;;;5016415;28;20058;-63
2021/05/04 02:55:07;;;;;;;4.10;3.22;;;9.40;58.90;;;;;;5016634;28;20061;-63
2021/05/04 02:57:32;;;;;;;4.50;3.30;;;9.40;58.70;;;;;;5016317;28;20037;-63
2021/05/04 02:59:58;;;;;;;3.25;2.90;;;9.50;58.80;;;;;;5016291;28;20037;-63
2021/05/04 03:02:24;;;;;;;3.90;3.08;;;9.50;58.80;;;;;;5018432;28;20027;-63
2021/05/04 03:04:50;;;;;;;4.22;3.30;;;9.60;59.00;;;;;;5017164;28;20421;-63
2021/05/04 03:07:15;;;;;;;4.40;3.45;;;9.70;59.20;;;;;;5016241;28;20564;-63
2021/05/04 03:09:41;;;;;;;4.90;2.95;;;9.80;59.20;;;;;;5019381;28;20037;-64
2021/05/04 03:12:07;;;;;;;4.45;3.40;;;9.90;59.10;;;;;;5017982;28;20045;-63
2021/05/04 03:14:33;;;;;;;3.85;2.85;;;10.00;59.10;;;;;;5018629;28;20120;-64
2021/05/04 03:16:58;;;;;;;3.13;2.78;;;10.10;59.10;;;;;;5016002;28;20101;-63
2021/05/04 03:19:24;;;;;;;3.40;2.83;;;10.20;59.10;;;;;;5016210;28;20029;-63
2021/05/04 03:21:49;;;;;;;4.22;3.00;;;10.40;58.90;;;;;;5015581;28;20034;-64
2021/05/04 03:24:15;;;;;;;3.05;2.53;;;10.60;58.60;;;;;;5015828;28;20068;-64
2021/05/04 03:26:41;;;;;;;5.63;3.13;;;10.70;58.70;;;;;;5021090;28;20357;-63
2021/05/04 03:29:06;;;;;;;3.88;2.80;;;10.90;58.40;;;;;;5020712;28;20527;-63
2021/05/04 03:31:32;;;;;;;4.07;3.40;;;11.00;58.60;;;;;;5024411;28;20489;-64
2021/05/04 03:33:58;;;;;;;3.20;2.90;;;11.20;58.50;;;;;;5025236;28;20405;-64
2021/05/04 03:36:24;;;;;;;4.60;3.35;;;11.40;58.60;;;;;;5019232;28;20529;-64
2021/05/04 03:38:49;;;;;;;3.47;2.97;;;11.60;58.30;;;;;;5015839;28;20125;-63
2021/05/04 03:41:15;;;;;;;4.60;3.10;;;11.80;58.40;;;;;;5017629;28;20038;-63
2021/05/04 03:43:41;;;;;;;3.40;3.05;;;12.10;58.80;;;;;;5015230;28;20037;-64
2021/05/04 03:46:06;;;;;;;4.70;3.15;;;12.30;58.60;;;;;;5014790;28;20045;-64
2021/05/04 03:48:32;;;;;;;3.88;3.10;;;12.60;58.80;;;;;;5017853;28;20018;-64
2021/05/04 03:50:58;;;;;;;5.35;3.17;;;12.90;58.70;;;;;;5015545;28;20094;-64
2021/05/04 03:53:24;;;;;;;3.05;2.75;;;13.20;58.30;;;;;;5015436;28;20458;-64
2021/05/04 03:55:50;;;;;;;3.92;3.28;;;13.60;58.30;;;;;;5024688;28;20037;-64
2021/05/04 03:58:16;;;;;;;3.60;2.90;;;14.10;57.90;;;;;;5021311;28;20045;-64
2021/05/04 04:00:42;;;;;;;4.30;2.65;;;14.60;57.00;;;;;;5015040;28;20056;-64
2021/05/04 04:03:07;;;;;;;3.53;3.10;;;15.30;56.10;;;;;;5019699;28;20029;-64
2021/05/04 04:05:33;;;;;;;5.00;2.90;;;16.10;55.00;;;;;;5015611;28;20053;-64
2021/05/04 04:08:00;;;;;;;2.88;2.53;;;17.00;53.30;;;;;;5023765;28;20423;-64
2021/05/04 04:10:25;;;;;;;3.10;2.45;;;18.00;51.90;;;;;;5015746;28;20049;-64
2021/05/04 04:12:51;;;;;;;3.95;2.85;;;19.00;50.70;;;;;;5014790;28;20505;-64
2021/05/04 04:15:17;;;;;;;3.90;2.65;;;20.00;48.50;;;;;;5019708;28;20044;-64
2021/05/04 04:17:42;;;;;;;3.85;2.92;;;20.80;46.90;;;;;;5021754;28;20068;-64
2021/05/04 04:20:08;;;;;;;4.35;2.72;;;21.20;45.40;;;;;;5014907;28;20045;-64
2021/05/04 04:22:35;;;;;;;3.25;2.95;;;21.70;44.30;;;;;;5015172;28;20037;-64
2021/05/04 04:25:02;;;;;;;3.70;2.67;;;21.90;43.10;;;;;;5015994;28;20033;-64
2021/05/04 04:27:28;;;;;;;2.90;2.53;;;22.00;42.50;;;;;;5018958;28;20026;-64
2021/05/04 04:29:54;;;;;;;3.92;2.55;;;22.20;42.50;;;;;;5018898;28;20039;-64
2021/05/04 04:32:20;;;;;;;4.60;2.53;;;22.50;42.40;;;;;;5015554;28;20026;-64
2021/05/04 04:34:46;;;;;;;2.85;2.60;;;22.80;41.20;;;;;;5019529;28;20038;-64
2021/05/04 04:37:12;;;;;;;2.90;2.33;;;23.20;40.80;;;;;;5016958;28;20025;-64
2021/05/04 04:39:38;;;;;;;5.78;2.90;;;23.50;40.50;;;;;;5015341;28;20017;-64
2021/05/04 04:42:04;;;;;;;4.38;2.72;;;23.90;40.10;;;;;;5022878;28;20119;-64
2021/05/04 04:44:29;;;;;;;3.25;2.92;;;24.40;39.90;;;;;;5017301;28;20030;-64
2021/05/04 04:46:55;;;;;;;2.92;2.70;;;24.70;38.90;;;;;;5018333;28;20175;-64
2021/05/04 04:49:21;;;;;;;3.60;2.45;;;24.90;38.50;;;;;;5014846;28;20030;-64
2021/05/04 04:51:48;;;;;;;3.03;2.72;;;25.10;38.00;;;;;;5014381;28;20032;-64
2021/05/04 04:54:14;;;;;;;3.05;2.70;;;25.10;37.60;;;;;;5019187;28;20052;-64
2021/05/04 04:56:40;;;;;;;3.20;2.47;;;25.00;37.30;;;;;;5021288;28;20029;-64
2021/05/04 04:59:07;;;;;;;3.45;3.03;;;24.90;37.10;;;;;;5015486;28;20450;-64
2021/05/04 05:01:33;;;;;;;3.58;2.80;;;24.70;37.10;;;;;;5021377;28;20030;-64
2021/05/04 05:04:00;;;;;;;2.47;2.28;;;24.60;37.30;;;;;;5019451;28;20505;-64
2021/05/04 05:06:26;;;;;;;2.60;2.40;;;24.60;37.20;;;;;;5023347;28;20761;-64
2021/05/04 05:08:52;;;;;;;3.60;2.78;;;24.40;36.90;;;;;;5017416;28;20105;-64
2021/05/04 05:11:19;;;;;;;3.33;2.85;;;24.00;37.10;;;;;;5016481;28;20045;-64
2021/05/04 05:13:45;;;;;;;3.08;2.45;;;23.70;37.40;;;;;;5014873;28;20040;-64
2021/05/04 05:16:13;;;;;;;3.92;2.92;;;23.30;37.60;;;;;;5024213;28;20037;-64
2021/05/04 05:18:39;;;;;;;2.63;2.40;;;23.00;37.90;;;;;;5014673;28;20033;-64
2021/05/04 05:21:05;;;;;;;3.55;2.88;;;22.80;38.10;;;;;;5014568;28;20044;-64
2021/05/04 05:23:32;;;;;;;4.68;3.00;;;22.80;38.40;;;;;;5029642;28;20021;-64
2021/05/04 05:26:02;;;;;;;3.28;2.97;;;22.80;37.70;;;;;;5014247;28;20470;-64
2021/05/04 05:28:28;;;;;;;3.75;2.80;;;22.60;37.30;;;;;;5014873;28;20072;-64
2021/05/04 05:30:54;;;;;;;3.20;2.70;;;22.00;37.60;;;;;;5028301;28;20037;-64
2021/05/04 05:33:20;;;;;;;4.00;2.88;;;21.00;38.40;;;;;;5033903;28;20049;-64
2021/05/04 05:35:47;;;;;;;4.55;3.30;;;20.20;39.40;;;;;;5038979;28;20030;-64
2021/05/04 05:38:13;;;;;;;5.78;4.07;;;19.30;40.40;;;;;;5032077;28;20029;-63
2021/05/04 05:40:39;;;;;;;3.65;3.25;;;18.60;41.60;;;;;;5025327;28;20033;-64
2021/05/04 05:43:06;;;;;;;5.75;3.03;;;18.10;42.30;;;;;;5018195;28;20032;-63
2021/05/04 05:45:32;;;;;;;3.47;2.88;;;17.60;43.10;;;;;;5013878;28;20378;-64
2021/05/04 05:47:57;;;;;;;3.72;3.20;;;17.30;43.60;;;;;;5014226;28;20035;-63
2021/05/04 05:50:23;;;;;;;4.65;3.53;;;16.90;44.10;;;;;;5013881;28;20128;-63
2021/05/04 05:52:50;;;;;;;4.05;3.50;;;16.70;44.80;;;;;;5014091;28;20057;-64
2021/05/04 05:55:15;;;;;;;4.53;3.30;;;16.50;45.30;;;;;;5014949;28;20044;-63
2021/05/04 05:57:41;;;;;;;3.30;3.00;;;16.40;45.50;;;;;;5016106;28;20030;-64
2021/05/04 06:00:09;;;;;;;5.32;3.20;;;16.30;45.80;;;;;;5015082;28;20046;-64
2021/05/04 06:02:34;;;;;;;3.33;2.83;;;16.30;45.90;;;;;;5014953;28;20026;-64
2021/05/04 06:05:00;;;;;;;3.78;3.35;;;16.20;45.90;;;;;;5014203;28;20014;-63
2021/05/04 06:07:26;;;;;;;4.05;3.15;;;16.20;46.20;;;;;;5028442;28;20049;-64
2021/05/04 06:09:52;;;;;;;3.60;3.30;;;16.00;46.20;;;;;;5029592;28;20018;-63
2021/05/04 06:12:17;;;;;;;3.72;3.20;;;15.90;46.30;;;;;;5018825;28;20030;-64
2021/05/04 06:14:43;;;;;;;3.38;3.08;;;15.80;46.60;;;;;;5018333;28;20042;-64
2021/05/04 06:17:09;;;;;;;4.53;3.30;;;15.60;46.80;;;;;;5018022;28;20025;-63
2021/05/04 06:19:34;;;;;;;4.25;3.20;;;15.50;47.00;;;;;;5023221;28;20034;-64
2021/05/04 06:22:00;;;;;;;4.55;3.50;;;15.40;47.10;;;;;;5022789;28;20105;-64
2021/05/04 06:24:25;;;;;;;3.92;3.10;;;15.40;47.20;;;;;;5025034;28;20508;-64
2021/05/04 06:26:51;;;;;;;4.32;3.58;;;15.40;47.10;;;;;;5037834;28;20469;-63
2021/05/04 06:29:17;;;;;;;5.30;3.17;;;15.30;47.30;;;;;;5037133;28;20025;-64
2021/05/04 06:31:43;;;;;;;4.15;3.10;;;15.20;47.60;;;;;;5028333;28;20044;-64
2021/05/04 06:34:12;;;;;;;8.07;3.53;;;15.30;48.10;;;;;;5033675;28;20426;-64
2021/05/04 06:36:37;;;;;;;5.70;3.67;;;15.30;48.30;;;;;;5030570;28;20101;-66
2021/05/04 06:39:04;;;;;;;4.50;3.28;;;15.40;48.20;;;;;;5026438;28;20179;-63
2021/05/04 06:41:35;;;;;;;4.47;3.28;;;15.40;48.40;;;;;;5019328;28;20022;-63
2021/05/04 06:44:04;;;;;;;5.03;3.50;;;15.50;48.30;;;;;;5022448;28;20116;-64
2021/05/04 06:46:31;;;;;;;3.95;3.25;;;15.50;48.20;;;;;;5032739;28;20022;-64
2021/05/04 06:48:57;;;;;;;4.30;3.45;;;15.60;48.00;;;;;;5037601;28;20018;-64
2021/05/04 06:51:23;;;;;;;5.28;3.72;;;15.60;48.00;;;;;;5031610;28;20040;-63
2021/05/04 06:53:49;;;;;;;4.00;3.60;;;15.70;48.00;;;;;;5022601;28;20077;-64
2021/05/04 06:56:15;;;;;;;5.13;3.45;;;15.70;48.20;;;;;;5031620;28;20377;-62
2021/05/04 06:58:41;;;;;;;3.63;3.33;;;15.80;48.00;;;;;;5037110;28;20022;-63
2021/05/04 07:01:06;;;;;;;4.45;3.28;;;15.70;48.00;;;;;;5026046;28;20058;-63
2021/05/04 07:03:32;;;;;;;5.30;3.35;;;15.70;47.90;;;;;;5030685;28;20045;-63
2021/05/04 07:05:58;;;;;;;4.63;3.30;;;15.80;48.20;;;;;;5017478;28;20497;-63
2021/05/04 07:08:23;;;;;;;4.32;3.50;;;15.80;48.20;;;;;;5015228;28;20505;-63
2021/05/04 07:10:49;;;;;;;3.83;3.22;;;15.80;48.00;;;;;;5015238;28;20037;-63
2021/05/04 07:13:18;;;;;;;3.90;3.20;;;15.90;47.70;;;;;;5016785;28;20022;-63
2021/05/04 07:15:45;;;;;;;3.30;2.95;;;15.80;47.70;;;;;;5016433;28;20030;-63
2021/05/04 07:18:11;;;;;;;3.75;2.90;;;15.90;47.50;;;;;;5016268;28;20061;-63
2021/05/04 07:20:39;;;;;;;3.47;2.95;;;15.90;47.20;;;;;;5015799;28;20037;-63
2021/05/04 07:23:09;;;;;;;2.92;2.63;;;15.90;47.10;;;;;;5016655;28;20547;-63
2021/05/04 07:25:35;;;;;;;3.10;2.80;;;15.80;47.00;;;;;;5016698;28;20040;-63
2021/05/04 07:28:01;;;;;;;3.40;3.10;;;15.80;46.80;;;;;;5015652;28;20381;-63
2021/05/04 07:30:28;;;;;;;3.50;2.70;;;15.70;46.60;;;;;;5016349;28;20026;-63
2021/05/04 07:32:54;;;;;;;3.13;2.83;;;15.60;46.50;;;;;;5016256;28;20104;-63
2021/05/04 07:35:19;;;;;;;2.60;2.40;;;15.50;46.50;;;;;;5037988;28;20025;-63
2021/05/04 07:37:45;;;;;;;3.53;2.60;;;15.50;46.70;;;;;;5036254;28;20029;-63
2021/05/04 07:40:11;;;;;;;3.53;2.97;;;15.40;46.90;;;;;;5036191;28;20037;-63
2021/05/04 07:42:37;;;;;;;4.97;3.58;;;15.30;46.90;;;;;;5036047;28;20421;-63
2021/05/04 07:45:03;;;;;;;3.70;3.10;;;15.10;47.10;;;;;;5036388;28;20033;-63
2021/05/04 07:47:29;;;;;;;4.72;3.28;;;15.10;47.40;;;;;;5036492;28;20144;-63
2021/05/04 07:49:56;;;;;;;4.22;2.90;;;15.00;47.50;;;;;;5036638;28;20051;-63
2021/05/04 07:52:25;;;;;;;3.17;2.88;;;15.00;47.60;;;;;;5035660;28;20064;-63
2021/05/04 07:54:52;;;;;;;3.30;2.95;;;15.00;47.90;;;;;;5035677;28;20026;-63
2021/05/04 07:57:19;;;;;;;3.97;3.33;;;15.00;47.90;;;;;;5035938;28;20040;-63
2021/05/04 07:59:44;;;;;;;4.35;3.47;;;15.00;48.00;;;;;;5036170;28;20053;-63
2021/05/04 08:02:10;;;;;;;2.80;2.60;;;15.00;48.10;;;;;;5035455;28;20053;-63
2021/05/04 08:04:36;;;;;;;3.72;3.03;;;15.00;47.90;;;;;;5035600;28;20033;-64
2021/05/04 08:07:06;;;;;;;3.58;2.90;;;15.00;47.60;;;;;;5035835;28;20484;-64
2021/05/04 08:09:32;;;;;;;3.45;2.53;;;15.00;47.20;;;;;;5035724;28;20029;-63
2021/05/04 08:11:57;;;;;;;3.22;2.80;;;14.90;47.50;;;;;;5035489;28;20458;-64
2021/05/04 08:14:24;;;;;;;4.00;2.80;;;14.90;47.50;;;;;;5035099;28;20547;-63
2021/05/04 08:16:51;;;;;;;3.83;2.78;;;14.90;47.50;;;;;;5016739;28;20026;-63
2021/05/04 08:19:16;;;;;;;3.97;2.85;;;14.90;47.50;;;;;;5013694;28;20030;-63
2021/05/04 08:21:43;;;;;;;4.68;3.00;;;14.90;47.30;;;;;;5014446;28;20367;-63
2021/05/04 08:24:11;;;;;;;2.88;2.42;;;14.90;47.30;;;;;;5014798;28;20515;-63
2021/05/04 08:26:37;;;;;;;3.40;2.70;;;14.90;47.50;;;;;;5015506;28;20018;-63
2021/05/04 08:29:03;;;;;;;2.95;2.63;;;14.80;47.10;;;;;;5014928;28;20113;-63
2021/05/04 08:31:29;;;;;;;3.72;2.88;;;14.90;47.10;;;;;;5015553;28;20056;-63
2021/05/04 08:33:55;;;;;;;3.42;2.78;;;14.80;46.90;;;;;;5030558;28;20108;-63
2021/05/04 08:36:21;;;;;;;3.10;2.80;;;14.90;46.90;;;;;;5034970;28;20029;-63
2021/05/04 08:38:46;;;;;;;3.38;2.80;;;14.90;47.30;;;;;;5035497;28;20385;-63
2021/05/04 08:41:14;;;;;;;3.33;2.72;;;14.70;47.90;;;;;;5035390;28;20083;-63
2021/05/04 08:43:45;;;;;;;3.08;2.78;;;14.60;48.40;;;;;;5035329;28;20017;-63
2021/05/04 08:46:11;;;;;;;3.97;3.03;;;14.40;49.00;;;;;;5035276;28;20465;-63
2021/05/04 08:48:38;;;;;;;3.55;2.72;;;14.30;49.50;;;;;;5035115;28;20022;-63
2021/05/04 08:51:04;;;;;;;4.40;3.13;;;14.30;49.50;;;;;;5034984;28;20388;-63
2021/05/04 08:53:30;;;;;;;3.83;3.22;;;14.40;49.50;;;;;;5034718;28;20047;-63
2021/05/04 08:55:56;;;;;;;3.40;3.00;;;14.40;49.50;;;;;;5034314;28;20025;-63
2021/05/04 08:58:21;;;;;;;3.10;2.80;;;14.50;49.30;;;;;;5034701;28;20113;-63
2021/05/04 09:00:48;;;;;;;4.63;3.25;;;14.50;49.20;;;;;;5034644;28;20433;-63
2021/05/04 09:03:20;;;;;;;3.60;3.00;;;14.60;48.90;;;;;;5035144;28;20554;-63
2021/05/04 09:05:58;;;;;;;3.25;2.92;;;14.70;48.90;;;;;;5035577;28;20049;-63
2021/05/04 09:08:34;;;;;;;3.30;2.80;;;14.70;48.50;;;;;;5034953;28;20481;-63
2021/05/04 09:14:04;;;;;;;2.80;2.60;;;14.70;48.10;;;;;;5035145;28;20025;-63
2021/05/04 09:16:37;;;;;;;3.22;2.92;;;14.70;48.20;;;;;;5032451;28;20022;-63
2021/05/04 09:21:53;;;;;;;4.25;3.20;;;14.80;49.70;;;;;;4991748;28;20049;-63
2021/05/04 09:24:38;;;;;;;2.90;2.60;;;15.00;49.50;;;;;;5013214;28;20022;-63
2021/05/04 09:27:07;;;;;;;4.15;3.47;;;15.10;49.00;;;;;;5013275;28;20367;-63
2021/05/04 09:29:38;;;;;;;4.05;2.50;;;15.20;48.70;;;;;;5020466;28;20498;-63
2021/05/04 09:32:12;;;;;;;4.55;2.97;;;15.30;47.90;;;;;;5030727;28;20469;-63
2021/05/04 09:35:02;;;;;;;3.42;2.50;;;15.30;47.40;;;;;;5039676;28;20025;-63
2021/05/04 09:37:37;;;;;;;2.90;2.58;;;15.30;46.70;;;;;;5022756;28;20030;-63
2021/05/04 09:40:24;;;;;;;2.80;2.50;;;15.10;46.50;;;;;;5022580;28;20038;-63
2021/05/04 09:43:02;;;;;;;2.67;2.40;;;14.90;46.90;;;;;;5026299;28;20017;-63
2021/05/04 09:45:28;;;;;;;4.85;2.75;;;14.80;47.60;;;;;;5027131;28;20103;-63
2021/05/04 09:48:18;;;;;;;3.25;2.28;;;14.70;47.70;;;;;;5014405;28;20481;-63
2021/05/04 09:51:06;;;;;;;2.95;2.60;;;14.80;48.10;;;;;;5014269;28;20362;-63
2021/05/04 09:53:58;;;;;;;2.50;2.30;;;14.80;47.70;;;;;;5015618;28;20053;-63
2021/05/04 09:56:31;;;;;;;2.60;2.33;;;14.90;47.40;;;;;;5014521;28;20037;-63
2021/05/04 09:58:57;;;;;;;4.85;2.40;;;14.90;47.10;;;;;;5014062;28;20084;-63
2021/05/04 10:01:23;;;;;;;2.67;2.38;;;14.90;47.00;;;;;;5012515;28;20067;-63
2021/05/04 10:03:49;;;;;;;3.60;2.60;;;15.00;47.10;;;;;;5017404;28;20378;-63
2021/05/04 10:06:17;;;;;;;3.33;2.42;;;14.90;46.90;;;;;;5030526;28;20083;-63
2021/05/04 10:08:44;;;;;;;2.83;2.38;;;14.90;46.70;;;;;;5029805;28;20030;-63
2021/05/04 10:11:12;;;;;;;2.58;2.38;;;15.00;46.70;;;;;;5014182;28;20044;-63
2021/05/04 10:13:39;;;;;;;3.65;2.35;;;14.90;46.70;;;;;;5014155;28;20084;-63
2021/05/04 10:16:07;;;;;;;4.85;2.30;;;15.00;47.00;;;;;;5022396;28;20410;-63
2021/05/04 10:18:34;;;;;;;2.60;2.40;;;15.00;47.10;;;;;;5016975;28;20226;-63
2021/05/04 10:21:05;;;;;;;3.60;2.40;;;14.90;47.40;;;;;;5021198;28;20025;-63
2021/05/04 10:23:32;;;;;;;2.60;2.38;;;14.70;47.80;;;;;;5026275;28;20018;-63
2021/05/04 10:26:04;;;;;;;2.20;2.00;;;14.50;48.00;;;;;;5041701;28;20017;-63
2021/05/04 10:28:36;;;;;;;2.50;2.30;;;14.40;47.90;;;;;;5029693;28;20037;-63
2021/05/04 10:31:07;;;;;;;2.38;1.90;;;14.30;48.40;;;;;;5043913;28;20026;-63
2021/05/04 10:33:39;;;;;;;2.22;2.03;;;14.30;48.10;;;;;;5015806;28;20022;-63
2021/05/04 10:36:05;;;;;;;3.25;2.42;;;14.20;48.10;;;;;;5030294;28;20036;-63
2021/05/04 10:38:50;;;;;;;2.58;2.38;;;14.10;47.90;;;;;;5032909;28;20517;-63
2021/05/04 10:41:16;;;;;;;2.22;2.03;;;14.10;47.70;;;;;;5022210;28;20140;-63
2021/05/04 10:43:43;;;;;;;2.47;2.28;;;14.00;48.10;;;;;;5015240;28;20122;-63
2021/05/04 10:46:29;;;;;;;2.50;2.30;;;14.00;48.20;;;;;;5017556;28;20165;-63
2021/05/04 10:48:55;;;;;;;2.47;2.20;;;14.00;48.20;;;;;;5021385;28;20029;-63
2021/05/04 10:51:44;;;;;;;2.33;2.13;;;14.00;48.50;;;;;;5011723;28;20029;-63
2021/05/04 10:54:10;;;;;;;2.35;2.15;;;14.10;48.30;;;;;;5020991;28;20386;-63
2021/05/04 10:56:56;;;;;;;2.20;2.00;;;14.20;48.40;;;;;;5023918;28;20056;-63
2021/05/04 10:59:24;;;;;;;2.35;2.15;;;14.30;48.00;;;;;;5023519;28;20026;-63
2021/05/04 11:02:17;;;;;;;2.97;2.25;;;14.30;47.80;;;;;;5023638;28;20034;-63
2021/05/04 11:04:48;;;;;;;3.45;2.30;;;14.40;47.60;;;;;;5027606;28;20033;-63
2021/05/04 11:07:33;;;;;;;2.40;2.20;;;14.60;47.00;;;;;;5034072;28;20034;-63
2021/05/04 11:10:10;;;;;;;3.97;2.28;;;14.60;46.50;;;;;;5028389;28;20049;-63
2021/05/04 11:12:37;;;;;;;1.88;1.77;;;14.60;45.80;;;;;;5037014;28;20033;-63
2021/05/04 11:15:26;;;;;;;2.53;2.33;;;14.60;46.70;;;;;;5017036;28;20034;-63
2021/05/04 11:17:52;;;;;;;3.53;2.40;;;14.60;46.40;;;;;;5024978;28;20065;-63
2021/05/04 11:20:39;;;;;;;2.63;2.20;;;14.60;46.80;;;;;;5026239;28;20058;-63
2021/05/04 11:23:08;;;;;;;2.50;2.30;;;14.70;46.70;;;;;;5025498;28;20025;-63
2021/05/04 11:25:42;;;;;;;2.30;2.10;;;14.70;46.80;;;;;;5019836;28;20381;-63
2021/05/04 11:28:09;;;;;;;2.97;2.38;;;14.80;46.70;;;;;;5025681;28;20021;-63
2021/05/04 11:30:40;;;;;;;3.35;2.80;;;14.80;46.80;;;;;;5022152;28;20350;-63
2021/05/04 11:33:31;;;;;;;;;;;14.80;46.70;;;;;;5024670;28;20148;-63
2021/05/04 11:35:58;;;;;;;2.70;2.40;;;14.80;46.70;;;;;;5033233;28;20372;-63
2021/05/04 11:38:25;;;;;;;4.38;2.30;;;14.90;46.80;;;;;;5035752;28;20033;-63
2021/05/04 11:40:52;;;;;;;2.38;2.17;;;14.90;46.80;;;;;;5034699;28;20030;-63
2021/05/04 11:43:20;;;;;;;2.65;2.42;;;15.00;47.00;;;;;;5036196;28;20430;-63
2021/05/04 11:45:47;;;;;;;2.63;2.22;;;15.00;46.50;;;;;;5032563;28;20072;-63
2021/05/04 11:48:15;;;;;;;4.47;2.67;;;15.10;46.20;;;;;;5024410;28;20033;-63
2021/05/04 11:50:42;;;;;;;2.90;2.50;;;15.10;46.00;;;;;;5033298;28;20056;-63
2021/05/04 11:53:10;;;;;;;2.78;2.20;;;15.00;45.80;;;;;;5028986;28;20041;-63
2021/05/04 11:55:40;;;;;;;2.42;2.15;;;14.90;46.10;;;;;;5024364;28;20037;-63
2021/05/04 11:58:22;;;;;;;2.35;2.25;;;14.90;46.50;;;;;;5030439;28;20032;-63
2021/05/04 12:01:05;;;;;;;2.38;2.08;;;14.90;46.50;;;;;;5028741;28;20029;-63
2021/05/04 12:03:32;;;;;;;2.60;1.90;;;14.90;46.80;;;;;;5023025;28;20040;-63
2021/05/04 12:05:59;;;;;;;2.30;2.10;;;14.90;47.50;;;;;;5024018;28;20228;-63
2021/05/04 12:08:25;;;;;;;5.40;2.35;;;14.80;48.10;;;;;;5023978;28;20022;-63
2021/05/04 12:10:52;;;;;;;3.05;2.40;;;14.80;48.50;;;;;;5025377;28;20472;-63
2021/05/04 12:13:25;;;;;;;2.65;2.45;;;14.70;48.80;;;;;;5025098;28;20025;-63
2021/05/04 12:15:53;;;;;;;3.28;2.92;;;14.70;48.60;;;;;;5023717;28;20079;-63
2021/05/04 12:18:23;;;;;;;5.05;3.10;;;14.50;48.80;;;;;;5025871;28;20044;-63
2021/05/04 12:20:50;;;;;;;2.60;2.40;;;14.40;49.20;;;;;;5024705;28;20033;-63
2021/05/04 12:23:31;;;;;;;3.03;2.63;;;14.30;49.90;;;;;;5021639;28;20077;-63
2021/05/04 12:25:59;;;;;;;;;;;14.30;49.90;;;;;;5022376;28;20025;-63
2021/05/04 12:28:32;;;;;;;2.40;2.20;;;14.20;49.30;;;;;;5022551;28;19909;-63
2021/05/04 12:31:10;;;;;;;2.45;2.25;;;14.20;49.60;;;;;;5024485;28;20037;-63
2021/05/04 12:33:38;;;;;;;2.92;2.13;;;14.10;49.60;;;;;;5021995;28;20033;-63
2021/05/04 12:36:11;;;;;;;2.13;1.90;;;14.10;49.50;;;;;;5022290;28;20123;-63
2021/05/04 12:38:48;;;;;;;1.92;1.80;;;14.10;49.20;;;;;;5022960;28;20159;-63
2021/05/04 12:41:23;;;;;;;2.20;2.00;;;14.00;49.30;;;;;;5020065;28;20511;-63
2021/05/04 12:44:05;;;;;;;3.08;2.20;;;14.10;48.80;;;;;;5022204;28;20037;-63
2021/05/04 12:46:34;;;;;;;2.20;2.00;;;14.10;49.10;;;;;;5022337;28;20021;-63
2021/05/04 12:49:01;;;;;;;4.05;2.20;;;14.10;49.10;;;;;;5019760;28;20030;-63
2021/05/04 12:51:33;;;;;;;2.78;1.83;;;14.10;48.70;;;;;;5018004;28;20026;-63
2021/05/04 12:54:11;;;;;;;2.08;1.95;;;14.10;48.70;;;;;;5019305;28;20136;-63
2021/05/04 12:56:38;;;;;;;4.15;2.40;;;14.20;48.50;;;;;;5000593;28;20073;-63
2021/05/04 12:59:08;;;;;;;2.97;2.30;;;14.20;48.10;;;;;;5018763;28;20037;-62
2021/05/04 13:01:50;;;;;;;2.45;2.05;;;14.20;47.80;;;;;;5020660;28;20099;-62